sensor_id;sensor_type;location;lat;lon;timestamp;temperature;humidity
23744;DHT22;12052;53.478;10.182;2022-09-01T00:02:23;14.50;99.90
23744;DHT22;12052;53.478;10.182;2022-09-01T00:04:52;14.60;99.90
23744;DHT22;12052;53.478;10.182;2022-09-01T00:07:23;14.50;99.90
23744;DHT22;12052;53.478;10.182;2022-09-01T00:09:48;14.50;99.90
23744;DHT22;12052;53.478;10.182;2022-09-01T00:12:15;14.50;99.90
23744;DHT22;12052;53.478;10.182;2022-09-01T00:14:42;14.50;99.90
23744;DHT22;12052;53.478;10.182;2022-09-01T00:17:09;14.40;99.90
23744;DHT22;12052;53.478;10.182;2022-09-01T00:19:35;14.40;99.90
23744;DHT22;12052;53.478;10.182;2022-09-01T00:22:03;14.30;99.90
23744;DHT22;12052;53.478;10.182;2022-09-01T00:24:29;14.30;99.90
23744;DHT22;12052;53.478;10.182;2022-09-01T00:26:55;14.30;99.90
23744;DHT22;12052;53.478;10.182;2022-09-01T00:29:21;14.30;99.90
23744;DHT22;12052;53.478;10.182;2022-09-01T00:31:47;14.30;99.90
23744;DHT22;12052;53.478;10.182;2022-09-01T00:34:14;14.20;99.90
23744;DHT22;12052;53.478;10.182;2022-09-01T00:36:40;14.20;99.90
23744;DHT22;12052;53.478;10.182;2022-09-01T00:39:06;14.20;99.90
23744;DHT22;12052;53.478;10.182;2022-09-01T00:41:34;14.10;99.90
23744;DHT22;12052;53.478;10.182;2022-09-01T00:44:05;14.20;99.90
23744;DHT22;12052;53.478;10.182;2022-09-01T00:46:44;14.10;99.90
23744;DHT22;12052;53.478;10.182;2022-09-01T00:49:18;14.10;99.90
23744;DHT22;12052;53.478;10.182;2022-09-01T00:51:48;14.10;99.90
23744;DHT22;12052;53.478;10.182;2022-09-01T00:54:18;14.10;99.90
23744;DHT22;12052;53.478;10.182;2022-09-01T00:56:45;14.10;99.90
23744;DHT22;12052;53.478;10.182;2022-09-01T00:59:12;14.00;99.90
23744;DHT22;12052;53.478;10.182;2022-09-01T01:01:39;14.00;99.90
23744;DHT22;12052;53.478;10.182;2022-09-01T01:04:07;14.00;99.90
23744;DHT22;12052;53.478;10.182;2022-09-01T01:06:43;13.90;99.90
23744;DHT22;12052;53.478;10.182;2022-09-01T01:09:18;13.90;99.90
23744;DHT22;12052;53.478;10.182;2022-09-01T01:11:44;13.90;99.90
23744;DHT22;12052;53.478;10.182;2022-09-01T01:14:13;13.90;99.90
23744;DHT22;12052;53.478;10.182;2022-09-01T01:16:41;13.90;99.90
23744;DHT22;12052;53.478;10.182;2022-09-01T01:19:41;13.90;99.90
23744;DHT22;12052;53.478;10.182;2022-09-01T01:28:14;13.90;99.90
23744;DHT22;12052;53.478;10.182;2022-09-01T01:30:47;13.80;99.90
23744;DHT22;12052;53.478;10.182;2022-09-01T01:33:25;13.80;99.90
23744;DHT22;12052;53.478;10.182;2022-09-01T01:35:52;13.80;99.90
23744;DHT22;12052;53.478;10.182;2022-09-01T01:38:19;13.70;99.90
23744;DHT22;12052;53.478;10.182;2022-09-01T01:40:47;13.70;99.90
23744;DHT22;12052;53.478;10.182;2022-09-01T01:43:13;13.70;99.90
23744;DHT22;12052;53.478;10.182;2022-09-01T01:45:48;13.70;99.90
23744;DHT22;12052;53.478;10.182;2022-09-01T01:48:20;13.70;99.90
23744;DHT22;12052;53.478;10.182;2022-09-01T01:50:52;13.60;99.90
23744;DHT22;12052;53.478;10.182;2022-09-01T01:53:18;13.60;99.90
23744;DHT22;12052;53.478;10.182;2022-09-01T01:55:48;13.50;99.90
23744;DHT22;12052;53.478;10.182;2022-09-01T01:58:15;13.60;99.90
23744;DHT22;12052;53.478;10.182;2022-09-01T02:00:41;13.50;99.90
23744;DHT22;12052;53.478;10.182;2022-09-01T02:03:09;13.50;99.90
23744;DHT22;12052;53.478;10.182;2022-09-01T02:05:38;13.50;99.90
23744;DHT22;12052;53.478;10.182;2022-09-01T02:08:06;13.50;99.90
23744;DHT22;12052;53.478;10.182;2022-09-01T02:10:37;13.40;99.90
23744;DHT22;12052;53.478;10.182;2022-09-01T02:13:04;13.40;99.90
23744;DHT22;12052;53.478;10.182;2022-09-01T02:15:34;13.40;99.90
23744;DHT22;12052;53.478;10.182;2022-09-01T02:18:07;13.40;99.90
23744;DHT22;12052;53.478;10.182;2022-09-01T02:20:32;13.40;99.90
23744;DHT22;12052;53.478;10.182;2022-09-01T02:22:58;13.40;99.90
23744;DHT22;12052;53.478;10.182;2022-09-01T02:25:34;13.30;99.90
23744;DHT22;12052;53.478;10.182;2022-09-01T02:28:00;13.30;99.90
23744;DHT22;12052;53.478;10.182;2022-09-01T02:30:28;13.30;99.90
23744;DHT22;12052;53.478;10.182;2022-09-01T02:32:56;13.30;99.90
23744;DHT22;12052;53.478;10.182;2022-09-01T02:35:23;13.30;99.90
23744;DHT22;12052;53.478;10.182;2022-09-01T02:37:51;13.20;99.90
23744;DHT22;12052;53.478;10.182;2022-09-01T02:40:19;13.20;99.90
23744;DHT22;12052;53.478;10.182;2022-09-01T02:42:45;13.20;99.90
23744;DHT22;12052;53.478;10.182;2022-09-01T02:45:12;13.20;99.90
23744;DHT22;12052;53.478;10.182;2022-09-01T02:47:42;13.10;99.90
23744;DHT22;12052;53.478;10.182;2022-09-01T02:50:09;13.20;99.90
23744;DHT22;12052;53.478;10.182;2022-09-01T02:52:38;13.20;99.90
23744;DHT22;12052;53.478;10.182;2022-09-01T02:55:06;13.20;99.90
23744;DHT22;12052;53.478;10.182;2022-09-01T02:57:32;13.20;99.90
23744;DHT22;12052;53.478;10.182;2022-09-01T02:59:59;13.20;99.90
23744;DHT22;12052;53.478;10.182;2022-09-01T03:02:24;13.20;99.90
23744;DHT22;12052;53.478;10.182;2022-09-01T03:04:53;13.20;99.90
23744;DHT22;12052;53.478;10.182;2022-09-01T03:07:20;13.20;99.90
23744;DHT22;12052;53.478;10.182;2022-09-01T03:09:50;13.20;99.90
23744;DHT22;12052;53.478;10.182;2022-09-01T03:12:17;13.20;99.90
23744;DHT22;12052;53.478;10.182;2022-09-01T03:14:44;13.20;99.90
23744;DHT22;12052;53.478;10.182;2022-09-01T03:17:09;13.20;99.90
23744;DHT22;12052;53.478;10.182;2022-09-01T03:19:36;13.30;99.90
23744;DHT22;12052;53.478;10.182;2022-09-01T03:22:09;13.20;99.90
23744;DHT22;12052;53.478;10.182;2022-09-01T03:24:35;13.20;99.90
23744;DHT22;12052;53.478;10.182;2022-09-01T03:27:01;13.30;99.90
23744;DHT22;12052;53.478;10.182;2022-09-01T03:29:26;13.30;99.90
23744;DHT22;12052;53.478;10.182;2022-09-01T03:31:52;13.30;99.90
23744;DHT22;12052;53.478;10.182;2022-09-01T03:34:18;13.30;99.90
23744;DHT22;12052;53.478;10.182;2022-09-01T03:36:48;13.30;99.90
23744;DHT22;12052;53.478;10.182;2022-09-01T03:39:17;13.20;99.90
23744;DHT22;12052;53.478;10.182;2022-09-01T03:41:43;13.20;99.90
23744;DHT22;12052;53.478;10.182;2022-09-01T03:44:10;13.20;99.90
23744;DHT22;12052;53.478;10.182;2022-09-01T03:46:40;13.20;99.90
23744;DHT22;12052;53.478;10.182;2022-09-01T03:49:08;13.20;99.90
23744;DHT22;12052;53.478;10.182;2022-09-01T03:51:36;13.20;99.90
23744;DHT22;12052;53.478;10.182;2022-09-01T03:54:03;13.20;99.90
23744;DHT22;12052;53.478;10.182;2022-09-01T03:56:29;13.10;99.90
23744;DHT22;12052;53.478;10.182;2022-09-01T03:58:58;13.10;99.90
23744;DHT22;12052;53.478;10.182;2022-09-01T04:01:26;13.10;99.90
23744;DHT22;12052;53.478;10.182;2022-09-01T04:03:51;13.10;99.90
23744;DHT22;12052;53.478;10.182;2022-09-01T04:06:18;13.00;99.90
23744;DHT22;12052;53.478;10.182;2022-09-01T04:08:46;13.00;99.90
23744;DHT22;12052;53.478;10.182;2022-09-01T04:11:14;13.00;99.90
23744;DHT22;12052;53.478;10.182;2022-09-01T04:13:43;12.90;99.90
23744;DHT22;12052;53.478;10.182;2022-09-01T04:16:27;13.00;99.90
23744;DHT22;12052;53.478;10.182;2022-09-01T04:19:14;12.90;99.90
23744;DHT22;12052;53.478;10.182;2022-09-01T04:21:59;12.90;99.90
23744;DHT22;12052;53.478;10.182;2022-09-01T04:24:27;12.90;99.90
23744;DHT22;12052;53.478;10.182;2022-09-01T04:26:54;12.80;99.90
23744;DHT22;12052;53.478;10.182;2022-09-01T04:29:21;12.80;99.90
23744;DHT22;12052;53.478;10.182;2022-09-01T04:31:54;12.90;99.90
23744;DHT22;12052;53.478;10.182;2022-09-01T04:34:21;12.80;99.90
23744;DHT22;12052;53.478;10.182;2022-09-01T04:36:48;12.80;99.90
23744;DHT22;12052;53.478;10.182;2022-09-01T04:39:15;12.80;99.90
23744;DHT22;12052;53.478;10.182;2022-09-01T04:41:42;12.80;99.90
23744;DHT22;12052;53.478;10.182;2022-09-01T04:44:11;12.80;99.90
23744;DHT22;12052;53.478;10.182;2022-09-01T04:46:40;12.70;99.90
23744;DHT22;12052;53.478;10.182;2022-09-01T04:49:11;12.70;99.90
23744;DHT22;12052;53.478;10.182;2022-09-01T04:51:42;12.70;99.90
23744;DHT22;12052;53.478;10.182;2022-09-01T04:54:08;12.70;99.90
23744;DHT22;12052;53.478;10.182;2022-09-01T04:56:40;12.70;99.90
23744;DHT22;12052;53.478;10.182;2022-09-01T04:59:09;12.60;99.90
23744;DHT22;12052;53.478;10.182;2022-09-01T05:01:36;12.60;99.90
23744;DHT22;12052;53.478;10.182;2022-09-01T05:04:17;12.60;99.90
23744;DHT22;12052;53.478;10.182;2022-09-01T05:06:46;12.60;99.90
23744;DHT22;12052;53.478;10.182;2022-09-01T05:09:15;12.60;99.90
23744;DHT22;12052;53.478;10.182;2022-09-01T05:11:41;12.60;99.90
23744;DHT22;12052;53.478;10.182;2022-09-01T05:14:10;12.70;99.90
23744;DHT22;12052;53.478;10.182;2022-09-01T05:16:37;12.70;99.90
23744;DHT22;12052;53.478;10.182;2022-09-01T05:19:06;12.70;99.90
23744;DHT22;12052;53.478;10.182;2022-09-01T05:21:43;12.70;99.90
23744;DHT22;12052;53.478;10.182;2022-09-01T05:24:11;12.70;99.90
23744;DHT22;12052;53.478;10.182;2022-09-01T05:26:39;12.80;99.90
23744;DHT22;12052;53.478;10.182;2022-09-01T05:29:06;12.80;99.90
23744;DHT22;12052;53.478;10.182;2022-09-01T05:31:43;12.80;99.90
23744;DHT22;12052;53.478;10.182;2022-09-01T05:34:09;12.90;99.90
23744;DHT22;12052;53.478;10.182;2022-09-01T05:36:36;13.00;99.90
23744;DHT22;12052;53.478;10.182;2022-09-01T05:39:05;13.00;99.90
23744;DHT22;12052;53.478;10.182;2022-09-01T05:41:31;13.10;99.90
23744;DHT22;12052;53.478;10.182;2022-09-01T05:43:58;13.20;99.90
23744;DHT22;12052;53.478;10.182;2022-09-01T05:46:26;13.30;99.90
23744;DHT22;12052;53.478;10.182;2022-09-01T05:48:53;13.40;99.90
23744;DHT22;12052;53.478;10.182;2022-09-01T05:51:25;13.50;99.90
23744;DHT22;12052;53.478;10.182;2022-09-01T05:53:53;13.60;99.90
23744;DHT22;12052;53.478;10.182;2022-09-01T05:56:24;13.70;99.90
23744;DHT22;12052;53.478;10.182;2022-09-01T05:58:50;13.80;99.90
23744;DHT22;12052;53.478;10.182;2022-09-01T06:01:23;13.90;99.90
23744;DHT22;12052;53.478;10.182;2022-09-01T06:03:51;14.00;99.90
23744;DHT22;12052;53.478;10.182;2022-09-01T06:06:20;14.10;99.90
23744;DHT22;12052;53.478;10.182;2022-09-01T06:08:51;14.20;99.90
23744;DHT22;12052;53.478;10.182;2022-09-01T06:11:17;14.30;99.90
23744;DHT22;12052;53.478;10.182;2022-09-01T06:13:44;14.40;99.90
23744;DHT22;12052;53.478;10.182;2022-09-01T06:16:12;14.60;99.90
23744;DHT22;12052;53.478;10.182;2022-09-01T06:18:38;14.70;99.90
23744;DHT22;12052;53.478;10.182;2022-09-01T06:21:05;14.90;99.90
23744;DHT22;12052;53.478;10.182;2022-09-01T06:23:34;15.00;99.90
23744;DHT22;12052;53.478;10.182;2022-09-01T06:26:00;15.10;99.90
23744;DHT22;12052;53.478;10.182;2022-09-01T06:28:28;15.20;99.90
23744;DHT22;12052;53.478;10.182;2022-09-01T06:30:54;15.40;99.90
23744;DHT22;12052;53.478;10.182;2022-09-01T06:33:21;15.50;99.90
23744;DHT22;12052;53.478;10.182;2022-09-01T06:35:49;15.60;99.90
23744;DHT22;12052;53.478;10.182;2022-09-01T06:38:17;15.80;99.90
23744;DHT22;12052;53.478;10.182;2022-09-01T06:40:44;15.80;99.90
23744;DHT22;12052;53.478;10.182;2022-09-01T06:43:10;15.90;99.90
23744;DHT22;12052;53.478;10.182;2022-09-01T06:45:41;16.00;99.90
23744;DHT22;12052;53.478;10.182;2022-09-01T06:48:07;16.20;99.90
23744;DHT22;12052;53.478;10.182;2022-09-01T06:50:33;16.30;99.90
23744;DHT22;12052;53.478;10.182;2022-09-01T06:52:58;16.40;99.90
23744;DHT22;12052;53.478;10.182;2022-09-01T06:55:37;16.40;99.90
23744;DHT22;12052;53.478;10.182;2022-09-01T06:58:07;16.50;99.90
23744;DHT22;12052;53.478;10.182;2022-09-01T07:00:35;16.60;99.90
23744;DHT22;12052;53.478;10.182;2022-09-01T07:03:10;16.80;99.90
23744;DHT22;12052;53.478;10.182;2022-09-01T07:05:44;16.80;99.90
23744;DHT22;12052;53.478;10.182;2022-09-01T07:08:13;17.00;99.90
23744;DHT22;12052;53.478;10.182;2022-09-01T07:10:47;17.10;99.90
23744;DHT22;12052;53.478;10.182;2022-09-01T07:13:17;17.20;99.90
23744;DHT22;12052;53.478;10.182;2022-09-01T07:15:46;17.30;99.90
23744;DHT22;12052;53.478;10.182;2022-09-01T07:18:14;17.40;99.90
23744;DHT22;12052;53.478;10.182;2022-09-01T07:20:42;17.50;99.90
23744;DHT22;12052;53.478;10.182;2022-09-01T07:23:09;17.60;99.90
23744;DHT22;12052;53.478;10.182;2022-09-01T07:25:41;17.80;99.90
23744;DHT22;12052;53.478;10.182;2022-09-01T07:28:08;17.80;99.90
23744;DHT22;12052;53.478;10.182;2022-09-01T07:30:40;17.90;99.90
23744;DHT22;12052;53.478;10.182;2022-09-01T07:33:06;18.00;99.90
23744;DHT22;12052;53.478;10.182;2022-09-01T07:35:38;18.20;99.90
23744;DHT22;12052;53.478;10.182;2022-09-01T07:38:04;18.20;99.90
23744;DHT22;12052;53.478;10.182;2022-09-01T07:40:32;18.30;99.90
23744;DHT22;12052;53.478;10.182;2022-09-01T07:43:06;18.40;99.90
23744;DHT22;12052;53.478;10.182;2022-09-01T07:45:34;18.40;99.90
23744;DHT22;12052;53.478;10.182;2022-09-01T07:48:03;18.50;99.90
23744;DHT22;12052;53.478;10.182;2022-09-01T07:50:35;18.60;99.90
23744;DHT22;12052;53.478;10.182;2022-09-01T07:53:02;18.70;99.90
23744;DHT22;12052;53.478;10.182;2022-09-01T07:55:28;18.80;99.90
23744;DHT22;12052;53.478;10.182;2022-09-01T07:57:55;19.00;99.90
23744;DHT22;12052;53.478;10.182;2022-09-01T08:00:22;19.10;99.90
23744;DHT22;12052;53.478;10.182;2022-09-01T08:02:47;19.30;99.90
23744;DHT22;12052;53.478;10.182;2022-09-01T08:05:17;19.40;99.90
23744;DHT22;12052;53.478;10.182;2022-09-01T08:07:47;19.50;99.90
23744;DHT22;12052;53.478;10.182;2022-09-01T08:10:13;19.60;99.90
23744;DHT22;12052;53.478;10.182;2022-09-01T08:12:39;19.80;99.90
23744;DHT22;12052;53.478;10.182;2022-09-01T08:15:07;19.90;99.90
23744;DHT22;12052;53.478;10.182;2022-09-01T08:17:35;20.00;99.90
23744;DHT22;12052;53.478;10.182;2022-09-01T08:20:01;20.10;99.90
23744;DHT22;12052;53.478;10.182;2022-09-01T08:22:27;20.30;99.90
23744;DHT22;12052;53.478;10.182;2022-09-01T08:24:53;20.40;99.90
23744;DHT22;12052;53.478;10.182;2022-09-01T08:27:19;20.60;99.90
23744;DHT22;12052;53.478;10.182;2022-09-01T08:29:45;20.70;99.90
23744;DHT22;12052;53.478;10.182;2022-09-01T08:32:10;20.80;99.90
23744;DHT22;12052;53.478;10.182;2022-09-01T08:34:36;20.90;99.90
23744;DHT22;12052;53.478;10.182;2022-09-01T08:37:03;20.90;99.90
23744;DHT22;12052;53.478;10.182;2022-09-01T08:39:29;21.00;99.90
23744;DHT22;12052;53.478;10.182;2022-09-01T08:47:46;21.30;99.90
23744;DHT22;12052;53.478;10.182;2022-09-01T08:50:13;21.40;99.90
23744;DHT22;12052;53.478;10.182;2022-09-01T08:53:04;21.50;99.90
23744;DHT22;12052;53.478;10.182;2022-09-01T08:55:38;21.80;99.90
23744;DHT22;12052;53.478;10.182;2022-09-01T08:58:05;21.90;99.90
23744;DHT22;12052;53.478;10.182;2022-09-01T09:00:40;22.00;99.90
23744;DHT22;12052;53.478;10.182;2022-09-01T09:03:42;22.00;99.90
23744;DHT22;12052;53.478;10.182;2022-09-01T09:06:34;22.20;99.90
23744;DHT22;12052;53.478;10.182;2022-09-01T09:11:48;22.40;99.90
23744;DHT22;12052;53.478;10.182;2022-09-01T09:14:41;22.60;99.90
23744;DHT22;12052;53.478;10.182;2022-09-01T09:17:10;22.60;99.90
23744;DHT22;12052;53.478;10.182;2022-09-01T09:19:40;22.40;99.90
23744;DHT22;12052;53.478;10.182;2022-09-01T09:22:17;22.60;99.90
23744;DHT22;12052;53.478;10.182;2022-09-01T09:25:06;22.80;99.90
23744;DHT22;12052;53.478;10.182;2022-09-01T09:27:38;23.00;99.90
23744;DHT22;12052;53.478;10.182;2022-09-01T09:30:13;23.10;99.90
23744;DHT22;12052;53.478;10.182;2022-09-01T09:33:03;23.10;99.90
23744;DHT22;12052;53.478;10.182;2022-09-01T09:35:39;23.20;99.90
23744;DHT22;12052;53.478;10.182;2022-09-01T09:41:07;23.50;99.90
23744;DHT22;12052;53.478;10.182;2022-09-01T09:43:45;23.60;99.90
23744;DHT22;12052;53.478;10.182;2022-09-01T09:46:38;23.70;99.90
23744;DHT22;12052;53.478;10.182;2022-09-01T09:49:09;23.40;99.90
23744;DHT22;12052;53.478;10.182;2022-09-01T09:51:36;23.80;99.90
23744;DHT22;12052;53.478;10.182;2022-09-01T09:56:45;23.50;99.90
23744;DHT22;12052;53.478;10.182;2022-09-01T09:59:32;23.60;99.90
23744;DHT22;12052;53.478;10.182;2022-09-01T10:02:14;23.70;99.90
23744;DHT22;12052;53.478;10.182;2022-09-01T10:04:42;23.60;99.90
23744;DHT22;12052;53.478;10.182;2022-09-01T10:09:59;24.10;99.90
23744;DHT22;12052;53.478;10.182;2022-09-01T10:12:27;24.30;99.90
23744;DHT22;12052;53.478;10.182;2022-09-01T10:14:59;24.50;99.90
23744;DHT22;12052;53.478;10.182;2022-09-01T10:17:34;24.70;99.70
23744;DHT22;12052;53.478;10.182;2022-09-01T10:20:05;24.80;99.50
23744;DHT22;12052;53.478;10.182;2022-09-01T10:22:34;24.80;99.90
23744;DHT22;12052;53.478;10.182;2022-09-01T10:25:01;24.70;99.40
23744;DHT22;12052;53.478;10.182;2022-09-01T10:27:30;24.80;99.90
23744;DHT22;12052;53.478;10.182;2022-09-01T10:32:57;25.00;98.90
23744;DHT22;12052;53.478;10.182;2022-09-01T10:35:44;25.00;98.40
23744;DHT22;12052;53.478;10.182;2022-09-01T10:38:26;24.80;99.70
23744;DHT22;12052;53.478;10.182;2022-09-01T10:40:57;25.00;98.80
23744;DHT22;12052;53.478;10.182;2022-09-01T10:45:58;25.00;99.80
23744;DHT22;12052;53.478;10.182;2022-09-01T10:48:30;25.10;98.40
23744;DHT22;12052;53.478;10.182;2022-09-01T10:53:49;25.20;99.80
23744;DHT22;12052;53.478;10.182;2022-09-01T10:59:06;25.20;97.60
23744;DHT22;12052;53.478;10.182;2022-09-01T11:04:13;25.00;95.90
23744;DHT22;12052;53.478;10.182;2022-09-01T11:09:29;25.00;97.50
23744;DHT22;12052;53.478;10.182;2022-09-01T11:14:24;25.00;96.60
23744;DHT22;12052;53.478;10.182;2022-09-01T11:17:19;25.00;97.20
23744;DHT22;12052;53.478;10.182;2022-09-01T11:19:59;24.90;97.70
23744;DHT22;12052;53.478;10.182;2022-09-01T11:22:38;24.70;97.30
23744;DHT22;12052;53.478;10.182;2022-09-01T11:25:33;24.60;96.40
23744;DHT22;12052;53.478;10.182;2022-09-01T11:28:00;24.60;98.60
23744;DHT22;12052;53.478;10.182;2022-09-01T11:30:54;24.50;97.70
23744;DHT22;12052;53.478;10.182;2022-09-01T11:36:05;23.90;97.60
23744;DHT22;12052;53.478;10.182;2022-09-01T11:41:45;23.60;97.90
23744;DHT22;12052;53.478;10.182;2022-09-01T11:46:47;23.10;99.90
23744;DHT22;12052;53.478;10.182;2022-09-01T11:49:33;22.90;99.90
23744;DHT22;12052;53.478;10.182;2022-09-01T11:52:00;22.70;99.90
23744;DHT22;12052;53.478;10.182;2022-09-01T11:54:29;22.50;99.90
23744;DHT22;12052;53.478;10.182;2022-09-01T11:57:25;22.50;99.90
23744;DHT22;12052;53.478;10.182;2022-09-01T11:59:52;22.40;99.90
23744;DHT22;12052;53.478;10.182;2022-09-01T12:02:22;22.30;99.90
23744;DHT22;12052;53.478;10.182;2022-09-01T12:04:50;22.10;99.90
23744;DHT22;12052;53.478;10.182;2022-09-01T12:07:40;22.10;99.90
23744;DHT22;12052;53.478;10.182;2022-09-01T12:10:36;22.00;99.90
23744;DHT22;12052;53.478;10.182;2022-09-01T12:13:09;22.10;99.90
23744;DHT22;12052;53.478;10.182;2022-09-01T12:15:39;22.20;99.90
23744;DHT22;12052;53.478;10.182;2022-09-01T12:18:19;22.20;99.90
23744;DHT22;12052;53.478;10.182;2022-09-01T12:20:48;22.40;99.90
23744;DHT22;12052;53.478;10.182;2022-09-01T12:23:49;22.60;99.90
23744;DHT22;12052;53.478;10.182;2022-09-01T12:26:16;22.70;99.90
23744;DHT22;12052;53.478;10.182;2022-09-01T12:28:51;23.00;99.90
23744;DHT22;12052;53.478;10.182;2022-09-01T12:31:26;22.90;99.90
23744;DHT22;12052;53.478;10.182;2022-09-01T12:33:54;22.70;99.90
23744;DHT22;12052;53.478;10.182;2022-09-01T12:36:27;22.70;99.90
23744;DHT22;12052;53.478;10.182;2022-09-01T12:38:54;22.60;99.90
23744;DHT22;12052;53.478;10.182;2022-09-01T12:43:51;22.30;99.90
23744;DHT22;12052;53.478;10.182;2022-09-01T12:46:39;22.30;99.90
23744;DHT22;12052;53.478;10.182;2022-09-01T12:49:22;22.30;99.90
23744;DHT22;12052;53.478;10.182;2022-09-01T12:52:32;22.30;99.90
23744;DHT22;12052;53.478;10.182;2022-09-01T12:54:38;22.20;99.90
23744;DHT22;12052;53.478;10.182;2022-09-01T12:57:04;22.20;99.90
23744;DHT22;12052;53.478;10.182;2022-09-01T12:59:30;22.30;99.90
23744;DHT22;12052;53.478;10.182;2022-09-01T13:01:56;22.40;99.90
23744;DHT22;12052;53.478;10.182;2022-09-01T13:04:25;22.30;99.90
23744;DHT22;12052;53.478;10.182;2022-09-01T13:07:05;22.40;99.90
23744;DHT22;12052;53.478;10.182;2022-09-01T13:09:32;22.50;99.90
23744;DHT22;12052;53.478;10.182;2022-09-01T13:12:16;22.60;99.90
23744;DHT22;12052;53.478;10.182;2022-09-01T13:14:42;22.70;99.90
23744;DHT22;12052;53.478;10.182;2022-09-01T13:17:07;22.80;99.90
23744;DHT22;12052;53.478;10.182;2022-09-01T13:19:33;22.80;99.90
23744;DHT22;12052;53.478;10.182;2022-09-01T13:21:58;22.80;99.90
23744;DHT22;12052;53.478;10.182;2022-09-01T13:24:24;22.90;99.90
23744;DHT22;12052;53.478;10.182;2022-09-01T13:26:50;23.00;99.90
23744;DHT22;12052;53.478;10.182;2022-09-01T13:29:22;23.10;99.90
23744;DHT22;12052;53.478;10.182;2022-09-01T13:31:48;23.30;99.70
23744;DHT22;12052;53.478;10.182;2022-09-01T13:34:14;23.30;99.90
23744;DHT22;12052;53.478;10.182;2022-09-01T13:36:40;23.30;99.50
23744;DHT22;12052;53.478;10.182;2022-09-01T13:39:06;23.30;99.30
23744;DHT22;12052;53.478;10.182;2022-09-01T13:41:31;23.30;99.70
23744;DHT22;12052;53.478;10.182;2022-09-01T13:43:57;23.30;99.90
23744;DHT22;12052;53.478;10.182;2022-09-01T13:46:23;23.30;99.90
23744;DHT22;12052;53.478;10.182;2022-09-01T13:48:48;23.30;99.60
23744;DHT22;12052;53.478;10.182;2022-09-01T13:51:26;23.10;99.90
23744;DHT22;12052;53.478;10.182;2022-09-01T13:53:53;23.10;99.90
23744;DHT22;12052;53.478;10.182;2022-09-01T13:56:18;22.90;99.90
23744;DHT22;12052;53.478;10.182;2022-09-01T13:58:44;22.80;99.90
23744;DHT22;12052;53.478;10.182;2022-09-01T14:01:10;22.70;99.90
23744;DHT22;12052;53.478;10.182;2022-09-01T14:03:36;22.60;99.90
23744;DHT22;12052;53.478;10.182;2022-09-01T14:06:02;22.50;99.90
23744;DHT22;12052;53.478;10.182;2022-09-01T14:08:27;22.40;99.90
23744;DHT22;12052;53.478;10.182;2022-09-01T14:10:53;22.30;99.90
23744;DHT22;12052;53.478;10.182;2022-09-01T14:13:20;22.30;99.90
23744;DHT22;12052;53.478;10.182;2022-09-01T14:15:46;22.30;99.90
23744;DHT22;12052;53.478;10.182;2022-09-01T14:18:14;22.40;99.90
23744;DHT22;12052;53.478;10.182;2022-09-01T14:20:43;22.50;99.90
23744;DHT22;12052;53.478;10.182;2022-09-01T14:23:09;22.60;99.90
23744;DHT22;12052;53.478;10.182;2022-09-01T14:25:36;22.70;99.90
23744;DHT22;12052;53.478;10.182;2022-09-01T14:28:03;22.80;99.90
23744;DHT22;12052;53.478;10.182;2022-09-01T14:30:31;22.90;99.90
23744;DHT22;12052;53.478;10.182;2022-09-01T14:32:57;23.10;99.90
23744;DHT22;12052;53.478;10.182;2022-09-01T14:35:24;23.10;99.90
23744;DHT22;12052;53.478;10.182;2022-09-01T14:37:51;23.30;99.90
23744;DHT22;12052;53.478;10.182;2022-09-01T14:40:19;23.30;99.90
23744;DHT22;12052;53.478;10.182;2022-09-01T14:42:48;23.20;99.90
23744;DHT22;12052;53.478;10.182;2022-09-01T14:45:26;23.00;99.60
23744;DHT22;12052;53.478;10.182;2022-09-01T14:47:55;22.80;99.80
23744;DHT22;12052;53.478;10.182;2022-09-01T14:50:24;22.70;99.90
23744;DHT22;12052;53.478;10.182;2022-09-01T14:52:54;22.50;99.90
23744;DHT22;12052;53.478;10.182;2022-09-01T14:55:22;22.40;99.90
23744;DHT22;12052;53.478;10.182;2022-09-01T14:57:48;22.30;99.90
23744;DHT22;12052;53.478;10.182;2022-09-01T15:00:13;22.30;99.90
23744;DHT22;12052;53.478;10.182;2022-09-01T15:02:40;22.20;99.90
23744;DHT22;12052;53.478;10.182;2022-09-01T15:05:06;22.20;99.90
23744;DHT22;12052;53.478;10.182;2022-09-01T15:07:32;22.10;99.90
23744;DHT22;12052;53.478;10.182;2022-09-01T15:09:58;21.90;99.90
23744;DHT22;12052;53.478;10.182;2022-09-01T15:12:24;21.90;99.90
23744;DHT22;12052;53.478;10.182;2022-09-01T15:14:55;21.80;99.90
23744;DHT22;12052;53.478;10.182;2022-09-01T15:17:21;21.60;99.90
23744;DHT22;12052;53.478;10.182;2022-09-01T15:19:46;21.50;99.90
23744;DHT22;12052;53.478;10.182;2022-09-01T15:22:12;21.50;99.90
23744;DHT22;12052;53.478;10.182;2022-09-01T15:24:38;21.40;99.90
23744;DHT22;12052;53.478;10.182;2022-09-01T15:27:04;21.40;99.90
23744;DHT22;12052;53.478;10.182;2022-09-01T15:29:31;21.50;99.90
23744;DHT22;12052;53.478;10.182;2022-09-01T15:31:59;21.50;99.90
23744;DHT22;12052;53.478;10.182;2022-09-01T15:34:26;21.50;99.90
23744;DHT22;12052;53.478;10.182;2022-09-01T15:36:52;21.60;99.90
23744;DHT22;12052;53.478;10.182;2022-09-01T15:39:18;21.60;99.90
23744;DHT22;12052;53.478;10.182;2022-09-01T15:41:43;21.70;99.90
23744;DHT22;12052;53.478;10.182;2022-09-01T15:44:09;21.80;99.90
23744;DHT22;12052;53.478;10.182;2022-09-01T15:46:36;21.70;99.90
23744;DHT22;12052;53.478;10.182;2022-09-01T15:49:05;21.70;99.90
23744;DHT22;12052;53.478;10.182;2022-09-01T15:54:03;21.80;99.90
23744;DHT22;12052;53.478;10.182;2022-09-01T15:56:30;21.80;99.90
23744;DHT22;12052;53.478;10.182;2022-09-01T15:58:56;21.80;99.90
23744;DHT22;12052;53.478;10.182;2022-09-01T16:01:24;21.80;99.90
23744;DHT22;12052;53.478;10.182;2022-09-01T16:03:49;21.80;99.90
23744;DHT22;12052;53.478;10.182;2022-09-01T16:06:15;21.80;99.90
23744;DHT22;12052;53.478;10.182;2022-09-01T16:08:41;21.80;99.90
23744;DHT22;12052;53.478;10.182;2022-09-01T16:11:08;21.80;99.90
23744;DHT22;12052;53.478;10.182;2022-09-01T16:13:35;21.70;99.90
23744;DHT22;12052;53.478;10.182;2022-09-01T16:18:39;21.70;99.90
23744;DHT22;12052;53.478;10.182;2022-09-01T16:21:38;21.50;99.90
23744;DHT22;12052;53.478;10.182;2022-09-01T16:24:10;21.50;99.90
23744;DHT22;12052;53.478;10.182;2022-09-01T16:26:37;21.40;99.90
23744;DHT22;12052;53.478;10.182;2022-09-01T16:29:13;21.40;99.90
23744;DHT22;12052;53.478;10.182;2022-09-01T16:31:39;21.40;99.90